createdAt,value
2023-04-05T00:01:15.993Z,100.00
2023-04-05T00:03:44.314Z,100.00
2023-04-05T00:06:13.523Z,100.00
2023-04-05T00:08:41.936Z,100.00
2023-04-05T00:11:10.442Z,100.00
2023-04-05T00:13:38.784Z,100.00
2023-04-05T00:16:07.696Z,100.00
2023-04-05T00:18:38.613Z,100.00
2023-04-05T00:21:07.125Z,100.00
2023-04-05T00:23:39.941Z,100.00
2023-04-05T00:26:09.011Z,100.00
2023-04-05T00:28:38.126Z,100.00
2023-04-05T00:31:07.149Z,100.00
2023-04-05T00:33:35.554Z,100.00
2023-04-05T00:36:17.557Z,100.00
2023-04-05T00:38:48.418Z,100.00
2023-04-05T00:41:16.994Z,100.00
2023-04-05T00:43:45.254Z,100.00
2023-04-05T00:46:13.847Z,100.00
2023-04-05T00:48:42.197Z,100.00
2023-04-05T00:51:11.965Z,100.00
2023-04-05T00:53:43.201Z,100.00
2023-04-05T00:56:13.890Z,100.00
2023-04-05T00:58:42.908Z,100.00
2023-04-05T01:01:18.832Z,100.00
2023-04-05T01:04:03.126Z,100.00
2023-04-05T01:07:24.050Z,100.00
2023-04-05T01:10:00.811Z,100.00
2023-04-05T01:12:33.655Z,100.00
2023-04-05T01:15:05.095Z,100.00
2023-04-05T01:17:37.122Z,100.00
2023-04-05T01:20:11.873Z,100.00
2023-04-05T01:23:31.259Z,100.00
2023-04-05T01:26:46.531Z,100.00
2023-04-05T01:29:45.018Z,100.00
2023-04-05T01:32:49.524Z,100.00
2023-04-05T01:35:39.637Z,100.00
2023-04-05T01:38:12.512Z,100.00
2023-04-05T01:40:42.337Z,100.00
2023-04-05T01:43:17.926Z,100.00
2023-04-05T01:45:47.238Z,100.00
2023-04-05T01:48:16.416Z,100.00
2023-04-05T01:50:44.504Z,100.00
2023-04-05T01:53:12.976Z,100.00
2023-04-05T01:55:41.472Z,100.00
2023-04-05T01:58:10.268Z,100.00
2023-04-05T02:00:39.403Z,100.00
2023-04-05T02:03:07.736Z,100.00
2023-04-05T02:05:35.813Z,100.00
2023-04-05T02:08:04.266Z,100.00
2023-04-05T02:10:32.442Z,100.00
2023-04-05T02:13:00.514Z,100.00
2023-04-05T02:15:28.648Z,100.00
2023-04-05T02:18:02.369Z,100.00
2023-04-05T02:20:31.087Z,100.00
2023-04-05T02:23:00.735Z,100.00
2023-04-05T02:25:30.109Z,100.00
2023-04-05T02:27:58.943Z,100.00
2023-04-05T02:30:29.242Z,100.00
2023-04-05T02:32:57.608Z,100.00
2023-04-05T02:35:26.048Z,100.00
2023-04-05T02:37:54.238Z,100.00
2023-04-05T02:40:23.564Z,100.00
2023-04-05T02:42:51.769Z,100.00
2023-04-05T02:45:19.827Z,100.00
2023-04-05T02:47:49.338Z,100.00
2023-04-05T02:50:21.014Z,100.00
2023-04-05T02:52:50.076Z,100.00
2023-04-05T02:55:19.533Z,100.00
2023-04-05T02:57:47.914Z,100.00
2023-04-05T03:00:41.129Z,100.00
2023-04-05T03:03:11.530Z,100.00
2023-04-05T03:05:43.442Z,100.00
2023-04-05T03:08:19.898Z,100.00
2023-04-05T03:10:59.372Z,100.00
2023-04-05T03:13:27.655Z,100.00
2023-04-05T03:15:56.725Z,100.00
2023-04-05T03:18:30.503Z,100.00
2023-04-05T03:21:06.163Z,100.00
2023-04-05T03:23:39.868Z,100.00
2023-04-05T03:26:07.957Z,100.00
2023-04-05T03:28:45.399Z,100.00
2023-04-05T03:41:05.322Z,100.00
2023-04-05T03:43:33.953Z,100.00
2023-04-05T03:46:03.417Z,100.00
2023-04-05T03:48:32.102Z,100.00
2023-04-05T03:51:00.103Z,100.00
2023-04-05T03:53:29.664Z,100.00
2023-04-05T03:56:00.848Z,100.00
2023-04-05T03:58:46.240Z,100.00
2023-04-05T04:01:16.943Z,100.00
2023-04-05T04:03:45.232Z,100.00
2023-04-05T04:06:15.430Z,100.00
2023-04-05T04:08:45.791Z,100.00
2023-04-05T04:11:14.130Z,100.00
2023-04-05T04:13:43.502Z,100.00
2023-04-05T04:16:28.241Z,100.00
2023-04-05T04:19:00.565Z,100.00
2023-04-05T04:21:32.995Z,100.00
2023-04-05T04:24:21.892Z,100.00
2023-04-05T04:26:55.922Z,100.00
2023-04-05T04:29:47.092Z,100.00
2023-04-05T04:32:59.194Z,100.00
2023-04-05T04:35:47.341Z,100.00
2023-04-05T04:38:35.234Z,100.00
2023-04-05T04:41:27.146Z,100.00
2023-04-05T04:44:24.556Z,100.00
2023-04-05T04:47:23.082Z,100.00
2023-04-05T04:50:16.306Z,100.00
2023-04-05T04:52:44.214Z,100.00
2023-04-05T04:55:16.013Z,100.00
2023-04-05T04:57:52.402Z,100.00
2023-04-05T05:00:22.517Z,100.00
2023-04-05T05:02:52.690Z,100.00
2023-04-05T05:05:24.016Z,100.00
2023-04-05T05:07:52.973Z,100.00
2023-04-05T05:10:21.634Z,100.00
2023-04-05T05:12:49.838Z,100.00
2023-04-05T05:16:34.021Z,100.00
2023-04-05T05:19:03.298Z,100.00
2023-04-05T05:21:40.759Z,100.00
2023-04-05T05:24:10.385Z,100.00
2023-04-05T05:26:42.090Z,100.00
2023-04-05T05:29:10.021Z,100.00
2023-04-05T05:31:41.735Z,100.00
2023-04-05T05:34:09.926Z,100.00
2023-04-05T05:36:41.167Z,100.00
2023-04-05T05:39:10.586Z,100.00
2023-04-05T05:41:41.296Z,100.00
2023-04-05T05:44:09.313Z,100.00
2023-04-05T05:46:38.189Z,100.00
2023-04-05T05:49:06.747Z,100.00
2023-04-05T05:51:36.202Z,100.00
2023-04-05T05:54:05.667Z,100.00
2023-04-05T05:56:33.760Z,100.00
2023-04-05T05:59:02.001Z,100.00
2023-04-05T06:01:30.300Z,100.00
2023-04-05T06:03:58.321Z,100.00
2023-04-05T06:06:27.080Z,100.00
2023-04-05T06:08:55.367Z,100.00
2023-04-05T06:11:25.451Z,100.00
2023-04-05T06:13:55.284Z,100.00
2023-04-05T06:16:23.835Z,100.00
2023-04-05T06:18:51.961Z,100.00
2023-04-05T06:21:20.081Z,100.00
2023-04-05T06:23:48.603Z,100.00
2023-04-05T06:26:27.082Z,100.00
2023-04-05T06:28:55.920Z,100.00
2023-04-05T06:31:36.837Z,100.00
2023-04-05T06:34:06.141Z,100.00
2023-04-05T06:36:34.680Z,100.00
2023-04-05T06:39:03.238Z,100.00
2023-04-05T06:41:31.943Z,100.00
2023-04-05T06:44:00.344Z,100.00
2023-04-05T06:46:29.130Z,100.00
2023-04-05T06:48:58.769Z,100.00
2023-04-05T06:51:29.001Z,100.00
2023-04-05T06:53:57.283Z,100.00
2023-04-05T06:56:25.879Z,100.00
2023-04-05T06:58:54.350Z,100.00
2023-04-05T07:01:22.377Z,100.00
2023-04-05T07:03:51.087Z,100.00
2023-04-05T07:06:19.126Z,100.00
2023-04-05T07:08:47.353Z,100.00
2023-04-05T07:11:15.883Z,100.00
2023-04-05T07:13:43.874Z,100.00
2023-04-05T07:16:11.972Z,100.00
2023-04-05T07:18:40.499Z,100.00
2023-04-05T07:21:08.588Z,100.00
2023-04-05T07:23:36.841Z,100.00
2023-04-05T07:26:06.168Z,100.00
2023-04-05T07:28:36.079Z,100.00
2023-04-05T07:31:07.511Z,100.00
2023-04-05T07:33:35.686Z,100.00
2023-04-05T07:36:04.041Z,100.00
2023-04-05T07:38:32.463Z,100.00
2023-04-05T07:41:00.882Z,100.00
2023-04-05T07:43:29.177Z,100.00
2023-04-05T07:46:04.784Z,100.00
2023-04-05T07:48:33.113Z,100.00
2023-04-05T07:51:10.357Z,100.00
2023-04-05T07:53:38.873Z,100.00
2023-04-05T07:56:08.785Z,100.00
2023-04-05T07:58:41.687Z,100.00
2023-04-05T08:01:11.604Z,100.00
2023-04-05T08:03:40.339Z,100.00
2023-04-05T08:06:19.680Z,100.00
2023-04-05T08:08:48.363Z,100.00
2023-04-05T08:11:16.698Z,100.00
2023-04-05T08:13:45.321Z,100.00
2023-04-05T08:16:13.661Z,100.00
2023-04-05T08:18:42.165Z,100.00
2023-04-05T08:21:10.890Z,100.00
2023-04-05T08:23:39.410Z,100.00
2023-04-05T08:26:08.061Z,100.00
2023-04-05T08:28:37.510Z,100.00
2023-04-05T08:31:06.274Z,100.00
2023-04-05T08:33:34.548Z,100.00
2023-04-05T08:36:10.207Z,100.00
2023-04-05T08:38:38.885Z,100.00
2023-04-05T08:41:20.033Z,100.00
2023-04-05T08:44:02.782Z,100.00
2023-04-05T08:46:35.361Z,100.00
2023-04-05T08:49:08.370Z,100.00
2023-04-05T08:51:39.967Z,100.00
2023-04-05T08:54:08.402Z,100.00
2023-04-05T08:56:37.389Z,100.00
2023-04-05T08:59:06.936Z,100.00
2023-04-05T09:01:44.272Z,100.00
2023-04-05T09:04:27.561Z,100.00
2023-04-05T09:06:59.495Z,100.00
2023-04-05T09:09:33.376Z,100.00
2023-04-05T09:12:03.773Z,100.00
2023-04-05T09:14:34.801Z,100.00
2023-04-05T09:17:04.831Z,100.00
2023-04-05T09:19:32.870Z,100.00
2023-04-05T09:22:08.589Z,100.00
2023-04-05T09:24:44.272Z,100.00
2023-04-05T09:27:19.403Z,100.00
2023-04-05T09:29:54.654Z,100.00
2023-04-05T09:32:29.773Z,100.00
2023-04-05T09:35:02.486Z,100.00
2023-04-05T09:37:33.135Z,100.00
2023-04-05T09:40:07.654Z,100.00
2023-04-05T09:42:47.672Z,100.00
2023-04-05T09:45:18.456Z,100.00
2023-04-05T09:47:58.448Z,100.00
2023-04-05T09:50:26.929Z,100.00
2023-04-05T09:53:29.816Z,100.00
2023-04-05T09:56:11.197Z,100.00
2023-04-05T09:58:42.877Z,100.00
2023-04-05T10:01:16.829Z,100.00
2023-04-05T10:03:50.310Z,100.00
2023-04-05T10:06:18.740Z,100.00
2023-04-05T10:08:48.846Z,100.00
2023-04-05T10:11:21.240Z,100.00
2023-04-05T10:13:50.932Z,100.00
2023-04-05T10:16:26.199Z,100.00
2023-04-05T10:18:54.723Z,100.00
2023-04-05T10:21:28.878Z,100.00
2023-04-05T10:24:44.117Z,100.00
2023-04-05T10:27:28.456Z,100.00
2023-04-05T10:30:09.332Z,100.00
2023-04-05T10:33:14.496Z,100.00
2023-04-05T10:36:12.735Z,100.00
2023-04-05T10:39:20.374Z,100.00
2023-04-05T10:41:53.268Z,100.00
2023-04-05T10:44:26.182Z,100.00
2023-04-05T10:46:56.495Z,100.00
2023-04-05T10:49:40.508Z,100.00
2023-04-05T10:52:09.539Z,100.00
2023-04-05T10:54:40.619Z,100.00
2023-04-05T10:57:10.903Z,100.00
2023-04-05T10:59:45.903Z,100.00
2023-04-05T11:02:15.796Z,100.00
2023-04-05T11:04:44.356Z,100.00
2023-04-05T11:07:20.127Z,97.10
2023-04-05T11:09:55.465Z,96.66
2023-04-05T11:12:56.355Z,92.80
2023-04-05T11:15:32.825Z,97.65
2023-04-05T11:18:32.969Z,98.68
2023-04-05T11:21:08.141Z,100.00
2023-04-05T11:24:07.809Z,97.97
2023-04-05T11:26:44.868Z,93.55
2023-04-05T11:29:12.898Z,91.36
2023-04-05T11:32:06.330Z,88.54
2023-04-05T11:34:37.924Z,88.72
2023-04-05T11:37:05.948Z,93.59
2023-04-05T11:39:34.309Z,91.65
2023-04-05T11:42:10.381Z,94.23
2023-04-05T11:44:53.307Z,95.15
2023-04-05T11:47:22.151Z,97.23
2023-04-05T11:49:51.491Z,91.91
2023-04-05T11:52:23.050Z,92.98
2023-04-05T11:54:52.353Z,91.48
2023-04-05T11:57:23.351Z,87.12
2023-04-05T11:59:54.077Z,86.85
2023-04-05T12:02:22.730Z,82.45
2023-04-05T12:04:58.596Z,87.88
2023-04-05T12:07:29.763Z,85.18
2023-04-05T12:10:16.256Z,85.22
2023-04-05T12:12:45.567Z,85.82
2023-04-05T12:15:18.285Z,84.02
2023-04-05T12:17:54.770Z,85.32
2023-04-05T12:20:25.889Z,83.10
2023-04-05T12:22:56.907Z,84.82
2023-04-05T12:25:26.494Z,84.44
2023-04-05T12:27:55.205Z,85.98
2023-04-05T12:30:25.225Z,85.74
2023-04-05T12:32:57.987Z,82.99
2023-04-05T12:35:34.935Z,82.54
2023-04-05T12:38:06.819Z,82.22
2023-04-05T12:40:36.693Z,81.73
2023-04-05T12:43:09.676Z,83.11
2023-04-05T12:45:42.546Z,82.68
2023-04-05T12:48:14.448Z,82.81
2023-04-05T12:50:45.622Z,81.05
2023-04-05T12:53:20.711Z,83.24
2023-04-05T12:55:56.025Z,85.22
2023-04-05T12:58:35.321Z,79.79
2023-04-05T13:01:07.331Z,80.64
2023-04-05T13:03:36.890Z,82.16
2023-04-05T13:06:05.850Z,84.08
2023-04-05T13:08:34.327Z,81.83
2023-04-05T13:11:04.517Z,83.65
2023-04-05T13:13:34.726Z,82.62
2023-04-05T13:16:03.612Z,86.19
2023-04-05T13:18:32.240Z,89.29
2023-04-05T13:21:00.979Z,90.72
2023-04-05T13:23:29.472Z,93.57
2023-04-05T13:25:58.567Z,95.47
2023-04-05T13:28:27.562Z,95.65
2023-04-05T13:30:56.273Z,94.36
2023-04-05T13:33:25.324Z,95.38
2023-04-05T13:35:53.584Z,94.36
2023-04-05T13:38:22.162Z,94.42
2023-04-05T13:40:50.589Z,93.73
2023-04-05T13:43:19.459Z,95.71
2023-04-05T13:45:47.858Z,96.49
2023-04-05T13:48:17.404Z,97.40
2023-04-05T13:50:47.450Z,97.79
2023-04-05T13:53:17.040Z,96.58
2023-04-05T13:55:45.616Z,93.21
2023-04-05T13:58:14.729Z,92.78
2023-04-05T14:00:43.333Z,92.79
2023-04-05T14:03:12.609Z,93.51
2023-04-05T14:05:41.401Z,94.54
2023-04-05T14:08:10.272Z,93.83
2023-04-05T14:10:39.568Z,92.98
2023-04-05T14:13:08.143Z,91.21
2023-04-05T14:15:37.086Z,95.22
2023-04-05T14:18:07.421Z,93.13
2023-04-05T14:20:36.394Z,92.27
2023-04-05T14:23:05.190Z,93.69
2023-04-05T14:25:34.075Z,92.97
2023-04-05T14:28:02.556Z,92.35
2023-04-05T14:30:31.549Z,93.57
2023-04-05T14:32:59.966Z,96.33
2023-04-05T14:35:28.645Z,94.42
2023-04-05T14:37:58.324Z,93.53
2023-04-05T14:40:27.080Z,93.70
2023-04-05T14:42:56.300Z,95.85
2023-04-05T14:45:28.087Z,96.19
2023-04-05T14:47:56.787Z,96.02
2023-04-05T14:50:25.557Z,95.30
2023-04-05T14:52:55.000Z,96.41
2023-04-05T14:55:23.634Z,96.42
2023-04-05T14:57:51.942Z,96.22
2023-04-05T15:00:21.832Z,95.76
2023-04-05T15:02:50.668Z,96.10
2023-04-05T15:05:19.567Z,95.60
2023-04-05T15:07:48.357Z,96.38
2023-04-05T15:10:18.817Z,99.81
2023-04-05T15:12:47.081Z,100.00
2023-04-05T15:15:19.120Z,100.00
2023-04-05T15:17:47.616Z,99.64
2023-04-05T15:20:16.468Z,100.00
2023-04-05T15:22:45.200Z,99.27
2023-04-05T15:25:14.617Z,99.19
2023-04-05T15:27:43.167Z,99.74
2023-04-05T15:30:14.338Z,100.00
2023-04-05T15:32:42.964Z,100.00
2023-04-05T15:35:11.794Z,99.95
2023-04-05T15:37:41.114Z,100.00
2023-04-05T15:41:33.681Z,100.00
2023-04-05T15:44:04.117Z,100.00
2023-04-05T15:46:32.867Z,100.00
2023-04-05T15:49:01.597Z,99.89
2023-04-05T15:51:30.670Z,99.68
2023-04-05T15:53:59.048Z,99.47
2023-04-05T15:56:27.945Z,99.70
2023-04-05T15:58:57.608Z,100.00
2023-04-05T16:01:26.024Z,100.00
2023-04-05T16:03:54.252Z,100.00
2023-04-05T16:06:28.479Z,100.00
2023-04-05T16:08:56.822Z,100.00
2023-04-05T16:11:25.708Z,100.00
2023-04-05T16:13:57.241Z,100.00
2023-04-05T16:16:35.278Z,100.00
2023-04-05T16:19:13.965Z,100.00
2023-04-05T16:21:42.335Z,100.00
2023-04-05T16:24:11.487Z,100.00
2023-04-05T16:26:39.701Z,100.00
2023-04-05T16:29:08.095Z,100.00
2023-04-05T16:31:37.089Z,100.00
2023-04-05T16:34:05.490Z,100.00
2023-04-05T16:36:33.847Z,100.00
2023-04-05T16:39:02.448Z,100.00
2023-04-05T16:41:30.998Z,100.00
2023-04-05T16:43:59.008Z,100.00
2023-04-05T16:46:30.842Z,100.00
2023-04-05T16:49:00.967Z,100.00
2023-04-05T16:51:29.458Z,100.00
2023-04-05T16:53:57.688Z,100.00
2023-04-05T16:56:26.165Z,100.00
2023-04-05T16:58:55.221Z,100.00
2023-04-05T17:01:24.582Z,100.00
2023-04-05T17:03:53.141Z,100.00
2023-04-05T17:06:21.703Z,100.00
2023-04-05T17:08:50.023Z,100.00
2023-04-05T17:11:18.913Z,100.00
2023-04-05T17:13:47.669Z,100.00
2023-04-05T17:16:16.927Z,100.00
2023-04-05T17:18:45.628Z,100.00
2023-04-05T17:21:14.109Z,100.00
2023-04-05T17:23:42.841Z,100.00
2023-04-05T17:26:11.638Z,100.00
2023-04-05T17:28:39.981Z,100.00
2023-04-05T17:31:08.325Z,100.00
2023-04-05T17:33:37.632Z,100.00
2023-04-05T17:36:06.628Z,100.00
2023-04-05T17:38:35.379Z,100.00
2023-04-05T17:41:04.252Z,100.00
2023-04-05T17:43:32.695Z,100.00
2023-04-05T17:46:01.309Z,100.00
2023-04-05T17:48:30.720Z,100.00
2023-04-05T17:51:05.354Z,100.00
2023-04-05T17:53:34.708Z,100.00
2023-04-05T17:56:03.838Z,100.00
2023-04-05T17:58:32.778Z,100.00
2023-04-05T18:01:02.008Z,100.00
2023-04-05T18:03:30.923Z,100.00
2023-04-05T18:06:00.305Z,100.00
2023-04-05T18:08:29.492Z,100.00
2023-04-05T18:10:59.327Z,100.00
2023-04-05T18:13:28.731Z,100.00
2023-04-05T18:16:00.766Z,100.00
2023-04-05T18:18:29.186Z,100.00
2023-04-05T18:21:03.392Z,100.00
2023-04-05T18:23:31.824Z,100.00
2023-04-05T18:26:10.525Z,100.00
2023-04-05T18:28:39.305Z,100.00
2023-04-05T18:31:12.038Z,100.00
2023-04-05T18:33:41.096Z,100.00
2023-04-05T18:36:09.728Z,100.00
2023-04-05T18:38:41.639Z,100.00
2023-04-05T18:41:11.833Z,100.00
2023-04-05T18:43:40.786Z,100.00
2023-04-05T18:46:09.204Z,100.00
2023-04-05T18:48:39.666Z,100.00
2023-04-05T18:51:08.548Z,100.00
2023-04-05T18:53:37.917Z,100.00
2023-04-05T18:56:06.663Z,100.00
2023-04-05T18:58:38.127Z,100.00
2023-04-05T19:01:09.970Z,100.00
2023-04-05T19:03:39.669Z,100.00
2023-04-05T19:06:07.979Z,100.00
2023-04-05T19:08:37.111Z,100.00
2023-04-05T19:11:07.519Z,100.00
2023-04-05T19:13:36.711Z,100.00
2023-04-05T19:16:05.882Z,100.00
2023-04-05T19:18:34.579Z,100.00
2023-04-05T19:21:03.174Z,100.00
2023-04-05T19:23:31.867Z,100.00
2023-04-05T19:26:00.804Z,100.00
2023-04-05T19:28:32.304Z,100.00
2023-04-05T19:31:01.038Z,100.00
2023-04-05T19:33:31.915Z,100.00
2023-04-05T19:36:01.453Z,100.00
2023-04-05T19:38:30.070Z,100.00
2023-04-05T19:40:58.885Z,100.00
2023-04-05T19:43:31.861Z,100.00
2023-04-05T19:46:00.971Z,100.00
2023-04-05T19:48:46.172Z,100.00
2023-04-05T19:51:18.221Z,100.00
2023-04-05T19:53:51.945Z,100.00
2023-04-05T19:56:31.192Z,100.00
2023-04-05T19:59:25.076Z,100.00
2023-04-05T20:02:10.952Z,100.00
2023-04-05T20:04:40.079Z,100.00
2023-04-05T20:07:09.066Z,100.00
2023-04-05T20:09:40.529Z,100.00
2023-04-05T20:12:09.699Z,100.00
2023-04-05T20:14:46.768Z,100.00
2023-04-05T20:17:18.629Z,100.00
2023-04-05T20:20:00.944Z,100.00
2023-04-05T20:22:32.655Z,100.00
2023-04-05T20:25:32.461Z,100.00
2023-04-05T20:28:01.158Z,100.00
2023-04-05T20:30:31.866Z,100.00
2023-04-05T20:33:02.741Z,100.00
2023-04-05T20:35:35.302Z,100.00
2023-04-05T20:38:04.446Z,100.00
2023-04-05T20:40:33.949Z,100.00
2023-04-05T20:43:03.898Z,100.00
2023-04-05T20:45:32.763Z,100.00
2023-04-05T20:48:02.587Z,100.00
2023-04-05T20:50:31.312Z,100.00
2023-04-05T20:53:00.062Z,100.00
2023-04-05T20:55:28.842Z,100.00
2023-04-05T20:57:57.739Z,100.00
2023-04-05T21:00:26.439Z,100.00
2023-04-05T21:02:56.798Z,100.00
2023-04-05T21:05:25.397Z,100.00
2023-04-05T21:07:54.969Z,100.00
2023-04-05T21:10:23.203Z,100.00
2023-04-05T21:12:53.304Z,100.00
2023-04-05T21:15:22.816Z,100.00
2023-04-05T21:17:51.342Z,100.00
2023-04-05T21:20:19.556Z,100.00
2023-04-05T21:22:47.910Z,100.00
2023-04-05T21:25:16.007Z,100.00
2023-04-05T21:27:44.221Z,100.00
2023-04-05T21:30:13.754Z,100.00
2023-04-05T21:32:41.844Z,100.00
2023-04-05T21:35:11.632Z,100.00
2023-04-05T21:37:42.671Z,100.00
2023-04-05T21:40:11.747Z,100.00
2023-04-05T21:42:40.237Z,100.00
2023-04-05T21:45:10.100Z,100.00
2023-04-05T21:47:38.970Z,100.00
2023-04-05T21:50:08.838Z,100.00
2023-04-05T21:52:37.544Z,100.00
2023-04-05T21:55:06.583Z,100.00
2023-04-05T21:57:35.201Z,100.00
2023-04-05T22:00:07.427Z,100.00
2023-04-05T22:02:41.527Z,100.00
2023-04-05T22:05:11.151Z,100.00
2023-04-05T22:07:39.532Z,100.00
2023-04-05T22:10:09.197Z,100.00
2023-04-05T22:12:38.210Z,100.00
2023-04-05T22:15:08.358Z,100.00
2023-04-05T22:17:36.928Z,100.00
2023-04-05T22:20:06.294Z,100.00
2023-04-05T22:22:35.146Z,100.00
2023-04-05T22:25:03.971Z,100.00
2023-04-05T22:27:32.306Z,100.00
2023-04-05T22:30:01.669Z,100.00
2023-04-05T22:32:29.923Z,100.00
2023-04-05T22:34:58.470Z,100.00
2023-04-05T22:37:26.789Z,100.00
2023-04-05T22:39:55.030Z,100.00
2023-04-05T22:42:24.169Z,100.00
2023-04-05T22:44:52.248Z,100.00
2023-04-05T22:47:21.435Z,100.00
2023-04-05T22:49:50.113Z,100.00
2023-04-05T22:52:18.152Z,100.00
2023-04-05T22:54:46.564Z,100.00
2023-04-05T22:57:14.872Z,100.00
2023-04-05T22:59:44.134Z,100.00
2023-04-05T23:02:12.647Z,100.00
2023-04-05T23:04:41.404Z,100.00
2023-04-05T23:07:09.536Z,100.00
2023-04-05T23:09:38.496Z,100.00
2023-04-05T23:12:07.175Z,100.00
2023-04-05T23:14:35.338Z,100.00
2023-04-05T23:17:05.058Z,100.00
2023-04-05T23:19:33.784Z,100.00
2023-04-05T23:22:02.041Z,100.00
2023-04-05T23:24:30.539Z,100.00
2023-04-05T23:26:58.658Z,100.00
2023-04-05T23:29:26.823Z,100.00
2023-04-05T23:31:55.084Z,100.00
2023-04-05T23:34:23.234Z,100.00
2023-04-05T23:36:51.368Z,100.00
2023-04-05T23:39:20.111Z,100.00
2023-04-05T23:41:48.403Z,100.00
2023-04-05T23:44:16.535Z,100.00
2023-04-05T23:46:44.885Z,100.00
2023-04-05T23:49:13.842Z,100.00
2023-04-05T23:51:42.022Z,100.00
2023-04-05T23:54:10.602Z,100.00
2023-04-05T23:56:39.203Z,100.00
2023-04-05T23:59:07.867Z,100.00
